sensor_id;sensor_type;location;lat;lon;timestamp;P1;durP1;ratioP1;P2;durP2;ratioP2
73697;SDS011;62004;42.566;23.164;2023-03-14T00:01:45;99.53;;;27.63;;
73697;SDS011;62004;42.566;23.164;2023-03-14T00:04:10;98.80;;;28.43;;
73697;SDS011;62004;42.566;23.164;2023-03-14T00:06:35;98.40;;;27.73;;
73697;SDS011;62004;42.566;23.164;2023-03-14T00:09:01;96.90;;;26.90;;
73697;SDS011;62004;42.566;23.164;2023-03-14T00:11:26;97.10;;;26.63;;
73697;SDS011;62004;42.566;23.164;2023-03-14T00:13:51;97.50;;;26.40;;
73697;SDS011;62004;42.566;23.164;2023-03-14T00:16:17;97.38;;;27.55;;
73697;SDS011;62004;42.566;23.164;2023-03-14T00:18:43;97.97;;;27.27;;
73697;SDS011;62004;42.566;23.164;2023-03-14T00:21:09;97.60;;;26.87;;
73697;SDS011;62004;42.566;23.164;2023-03-14T00:23:35;98.28;;;27.27;;
73697;SDS011;62004;42.566;23.164;2023-03-14T00:26:01;98.35;;;26.88;;
73697;SDS011;62004;42.566;23.164;2023-03-14T00:28:26;97.93;;;27.38;;
73697;SDS011;62004;42.566;23.164;2023-03-14T00:30:52;98.18;;;27.35;;
73697;SDS011;62004;42.566;23.164;2023-03-14T00:33:17;97.33;;;27.33;;
73697;SDS011;62004;42.566;23.164;2023-03-14T00:35:42;97.53;;;27.47;;
73697;SDS011;62004;42.566;23.164;2023-03-14T00:38:07;98.20;;;27.83;;
73697;SDS011;62004;42.566;23.164;2023-03-14T00:40:33;97.77;;;27.90;;
73697;SDS011;62004;42.566;23.164;2023-03-14T00:42:58;97.73;;;28.57;;
73697;SDS011;62004;42.566;23.164;2023-03-14T00:45:23;97.30;;;28.60;;
73697;SDS011;62004;42.566;23.164;2023-03-14T00:47:48;97.33;;;27.50;;
73697;SDS011;62004;42.566;23.164;2023-03-14T00:50:14;97.47;;;27.33;;
73697;SDS011;62004;42.566;23.164;2023-03-14T00:52:39;97.93;;;26.87;;
73697;SDS011;62004;42.566;23.164;2023-03-14T00:55:04;97.87;;;27.30;;
73697;SDS011;62004;42.566;23.164;2023-03-14T00:57:30;97.68;;;28.17;;
73697;SDS011;62004;42.566;23.164;2023-03-14T00:59:55;98.47;;;26.53;;
73697;SDS011;62004;42.566;23.164;2023-03-14T01:02:20;97.77;;;27.20;;
73697;SDS011;62004;42.566;23.164;2023-03-14T01:04:47;97.73;;;27.27;;
73697;SDS011;62004;42.566;23.164;2023-03-14T01:07:12;96.65;;;27.90;;
73697;SDS011;62004;42.566;23.164;2023-03-14T01:09:37;97.30;;;27.10;;
73697;SDS011;62004;42.566;23.164;2023-03-14T01:12:03;97.57;;;27.67;;
73697;SDS011;62004;42.566;23.164;2023-03-14T01:14:28;97.72;;;27.70;;
73697;SDS011;62004;42.566;23.164;2023-03-14T01:16:53;97.20;;;26.97;;
73697;SDS011;62004;42.566;23.164;2023-03-14T01:19:18;97.33;;;27.13;;
73697;SDS011;62004;42.566;23.164;2023-03-14T01:21:44;96.97;;;27.30;;
73697;SDS011;62004;42.566;23.164;2023-03-14T01:24:10;97.27;;;28.13;;
73697;SDS011;62004;42.566;23.164;2023-03-14T01:26:36;98.03;;;27.08;;
73697;SDS011;62004;42.566;23.164;2023-03-14T01:29:01;100.03;;;29.00;;
73697;SDS011;62004;42.566;23.164;2023-03-14T01:31:27;100.00;;;28.38;;
73697;SDS011;62004;42.566;23.164;2023-03-14T01:41:37;96.80;;;27.10;;
73697;SDS011;62004;42.566;23.164;2023-03-14T01:44:03;97.17;;;27.63;;
73697;SDS011;62004;42.566;23.164;2023-03-14T01:51:24;98.33;;;27.27;;
73697;SDS011;62004;42.566;23.164;2023-03-14T01:53:50;97.95;;;26.92;;
73697;SDS011;62004;42.566;23.164;2023-03-14T01:56:16;97.63;;;27.25;;
73697;SDS011;62004;42.566;23.164;2023-03-14T01:58:42;97.15;;;27.25;;
73697;SDS011;62004;42.566;23.164;2023-03-14T02:01:09;97.70;;;27.45;;
73697;SDS011;62004;42.566;23.164;2023-03-14T02:03:35;97.57;;;27.38;;
73697;SDS011;62004;42.566;23.164;2023-03-14T02:06:03;98.32;;;28.38;;
73697;SDS011;62004;42.566;23.164;2023-03-14T02:08:30;97.43;;;27.65;;
73697;SDS011;62004;42.566;23.164;2023-03-14T02:10:56;96.83;;;27.47;;
73697;SDS011;62004;42.566;23.164;2023-03-14T02:13:21;95.87;;;28.00;;
73697;SDS011;62004;42.566;23.164;2023-03-14T02:15:46;96.87;;;27.77;;
73697;SDS011;62004;42.566;23.164;2023-03-14T02:18:12;98.38;;;29.73;;
73697;SDS011;62004;42.566;23.164;2023-03-14T02:20:46;97.78;;;28.27;;
73697;SDS011;62004;42.566;23.164;2023-03-14T02:23:14;96.70;;;27.65;;
73697;SDS011;62004;42.566;23.164;2023-03-14T02:25:46;97.13;;;27.67;;
73697;SDS011;62004;42.566;23.164;2023-03-14T02:28:13;97.20;;;27.10;;
73697;SDS011;62004;42.566;23.164;2023-03-14T02:30:38;99.93;;;28.95;;
73697;SDS011;62004;42.566;23.164;2023-03-14T02:33:05;99.97;;;28.30;;
73697;SDS011;62004;42.566;23.164;2023-03-14T02:36:14;99.82;;;27.45;;
73697;SDS011;62004;42.566;23.164;2023-03-14T02:40:54;100.22;;;27.50;;
73697;SDS011;62004;42.566;23.164;2023-03-14T02:43:19;100.17;;;27.37;;
73697;SDS011;62004;42.566;23.164;2023-03-14T02:45:45;100.27;;;27.23;;
73697;SDS011;62004;42.566;23.164;2023-03-14T02:48:54;100.93;;;27.30;;
73697;SDS011;62004;42.566;23.164;2023-03-14T02:50:59;101.55;;;28.17;;
73697;SDS011;62004;42.566;23.164;2023-03-14T02:53:29;101.03;;;27.83;;
73697;SDS011;62004;42.566;23.164;2023-03-14T02:55:54;101.03;;;27.88;;
73697;SDS011;62004;42.566;23.164;2023-03-14T02:58:20;99.85;;;26.88;;
73697;SDS011;62004;42.566;23.164;2023-03-14T03:00:45;100.38;;;28.17;;
73697;SDS011;62004;42.566;23.164;2023-03-14T03:03:11;99.60;;;27.27;;
73697;SDS011;62004;42.566;23.164;2023-03-14T03:05:36;99.60;;;28.57;;
73697;SDS011;62004;42.566;23.164;2023-03-14T03:08:02;98.87;;;27.60;;
73697;SDS011;62004;42.566;23.164;2023-03-14T03:10:27;97.75;;;26.85;;
73697;SDS011;62004;42.566;23.164;2023-03-14T03:12:53;97.32;;;27.63;;
73697;SDS011;62004;42.566;23.164;2023-03-14T03:15:18;96.83;;;27.13;;
73697;SDS011;62004;42.566;23.164;2023-03-14T03:17:43;97.33;;;27.30;;
73697;SDS011;62004;42.566;23.164;2023-03-14T03:20:09;96.33;;;27.17;;
73697;SDS011;62004;42.566;23.164;2023-03-14T03:22:35;96.95;;;27.95;;
73697;SDS011;62004;42.566;23.164;2023-03-14T03:25:00;96.80;;;27.52;;
73697;SDS011;62004;42.566;23.164;2023-03-14T03:27:26;96.50;;;26.97;;
73697;SDS011;62004;42.566;23.164;2023-03-14T03:29:51;97.27;;;27.40;;
73697;SDS011;62004;42.566;23.164;2023-03-14T03:32:16;97.80;;;28.10;;
73697;SDS011;62004;42.566;23.164;2023-03-14T03:34:41;98.47;;;27.33;;
73697;SDS011;62004;42.566;23.164;2023-03-14T03:37:07;99.70;;;28.37;;
73697;SDS011;62004;42.566;23.164;2023-03-14T03:39:32;100.00;;;28.50;;
73697;SDS011;62004;42.566;23.164;2023-03-14T03:41:57;99.97;;;27.97;;
73697;SDS011;62004;42.566;23.164;2023-03-14T03:44:22;99.23;;;27.23;;
73697;SDS011;62004;42.566;23.164;2023-03-14T03:46:48;99.73;;;27.77;;
73697;SDS011;62004;42.566;23.164;2023-03-14T03:49:13;99.77;;;28.67;;
73697;SDS011;62004;42.566;23.164;2023-03-14T03:51:39;99.57;;;27.73;;
73697;SDS011;62004;42.566;23.164;2023-03-14T03:54:04;100.13;;;28.85;;
73697;SDS011;62004;42.566;23.164;2023-03-14T03:56:29;99.93;;;27.93;;
73697;SDS011;62004;42.566;23.164;2023-03-14T03:58:56;100.05;;;28.00;;
73697;SDS011;62004;42.566;23.164;2023-03-14T04:01:21;99.77;;;28.03;;
73697;SDS011;62004;42.566;23.164;2023-03-14T04:03:46;99.50;;;27.63;;
73697;SDS011;62004;42.566;23.164;2023-03-14T04:06:12;100.10;;;28.30;;
73697;SDS011;62004;42.566;23.164;2023-03-14T04:08:38;99.78;;;28.35;;
73697;SDS011;62004;42.566;23.164;2023-03-14T04:11:04;99.30;;;27.20;;
73697;SDS011;62004;42.566;23.164;2023-03-14T04:13:29;99.88;;;28.15;;
73697;SDS011;62004;42.566;23.164;2023-03-14T04:15:55;99.93;;;28.13;;
73697;SDS011;62004;42.566;23.164;2023-03-14T04:18:20;99.93;;;28.27;;
73697;SDS011;62004;42.566;23.164;2023-03-14T04:20:50;99.93;;;28.00;;
73697;SDS011;62004;42.566;23.164;2023-03-14T04:23:15;100.10;;;29.02;;
73697;SDS011;62004;42.566;23.164;2023-03-14T04:25:40;99.23;;;27.17;;
73697;SDS011;62004;42.566;23.164;2023-03-14T04:28:06;99.90;;;27.97;;
73697;SDS011;62004;42.566;23.164;2023-03-14T04:30:31;99.70;;;27.50;;
73697;SDS011;62004;42.566;23.164;2023-03-14T04:32:56;99.27;;;27.40;;
73697;SDS011;62004;42.566;23.164;2023-03-14T04:35:21;99.23;;;27.40;;
73697;SDS011;62004;42.566;23.164;2023-03-14T04:37:47;99.70;;;28.03;;
73697;SDS011;62004;42.566;23.164;2023-03-14T04:40:14;100.00;;;28.48;;
73697;SDS011;62004;42.566;23.164;2023-03-14T04:42:39;99.47;;;27.67;;
73697;SDS011;62004;42.566;23.164;2023-03-14T04:45:05;99.67;;;27.93;;
73697;SDS011;62004;42.566;23.164;2023-03-14T04:47:30;99.65;;;27.83;;
73697;SDS011;62004;42.566;23.164;2023-03-14T04:49:55;99.73;;;27.73;;
73697;SDS011;62004;42.566;23.164;2023-03-14T04:52:21;99.33;;;27.50;;
73697;SDS011;62004;42.566;23.164;2023-03-14T04:54:46;99.77;;;28.00;;
73697;SDS011;62004;42.566;23.164;2023-03-14T04:57:11;98.97;;;27.07;;
73697;SDS011;62004;42.566;23.164;2023-03-14T04:59:36;99.57;;;27.83;;
73697;SDS011;62004;42.566;23.164;2023-03-14T05:02:01;99.73;;;28.27;;
73697;SDS011;62004;42.566;23.164;2023-03-14T05:04:27;100.03;;;28.87;;
73697;SDS011;62004;42.566;23.164;2023-03-14T05:06:52;100.07;;;28.17;;
73697;SDS011;62004;42.566;23.164;2023-03-14T05:09:17;100.45;;;27.77;;
73697;SDS011;62004;42.566;23.164;2023-03-14T05:11:43;100.33;;;28.07;;
73697;SDS011;62004;42.566;23.164;2023-03-14T05:14:08;100.67;;;27.97;;
73697;SDS011;62004;42.566;23.164;2023-03-14T05:16:33;100.68;;;27.35;;
73697;SDS011;62004;42.566;23.164;2023-03-14T05:18:59;100.60;;;27.80;;
73697;SDS011;62004;42.566;23.164;2023-03-14T05:21:26;100.88;;;28.38;;
73697;SDS011;62004;42.566;23.164;2023-03-14T05:23:51;100.97;;;27.83;;
73697;SDS011;62004;42.566;23.164;2023-03-14T05:26:16;101.83;;;29.77;;
73697;SDS011;62004;42.566;23.164;2023-03-14T05:28:42;103.10;;;28.27;;
73697;SDS011;62004;42.566;23.164;2023-03-14T05:31:07;105.40;;;28.50;;
73697;SDS011;62004;42.566;23.164;2023-03-14T05:33:33;108.53;;;29.70;;
73697;SDS011;62004;42.566;23.164;2023-03-14T05:35:58;109.47;;;28.67;;
73697;SDS011;62004;42.566;23.164;2023-03-14T05:38:23;110.07;;;27.43;;
73697;SDS011;62004;42.566;23.164;2023-03-14T05:40:48;112.50;;;28.17;;
73697;SDS011;62004;42.566;23.164;2023-03-14T05:43:14;113.80;;;28.47;;
73697;SDS011;62004;42.566;23.164;2023-03-14T05:45:40;115.07;;;28.35;;
73697;SDS011;62004;42.566;23.164;2023-03-14T05:48:05;115.88;;;28.30;;
73697;SDS011;62004;42.566;23.164;2023-03-14T05:50:30;118.20;;;28.93;;
73697;SDS011;62004;42.566;23.164;2023-03-14T05:52:56;119.57;;;28.87;;
73697;SDS011;62004;42.566;23.164;2023-03-14T05:55:21;122.32;;;29.92;;
73697;SDS011;62004;42.566;23.164;2023-03-14T05:57:46;122.60;;;30.40;;
73697;SDS011;62004;42.566;23.164;2023-03-14T06:00:12;121.40;;;28.80;;
73697;SDS011;62004;42.566;23.164;2023-03-14T06:02:37;125.05;;;28.23;;
73697;SDS011;62004;42.566;23.164;2023-03-14T06:05:02;126.80;;;27.97;;
73697;SDS011;62004;42.566;23.164;2023-03-14T06:07:28;127.45;;;29.92;;
73697;SDS011;62004;42.566;23.164;2023-03-14T06:09:53;124.13;;;27.73;;
73697;SDS011;62004;42.566;23.164;2023-03-14T06:12:18;123.10;;;28.60;;
73697;SDS011;62004;42.566;23.164;2023-03-14T06:14:44;122.18;;;28.52;;
73697;SDS011;62004;42.566;23.164;2023-03-14T06:17:09;120.93;;;28.63;;
73697;SDS011;62004;42.566;23.164;2023-03-14T06:19:34;121.63;;;28.97;;
73697;SDS011;62004;42.566;23.164;2023-03-14T06:21:59;124.33;;;29.33;;
73697;SDS011;62004;42.566;23.164;2023-03-14T06:24:25;125.60;;;29.00;;
73697;SDS011;62004;42.566;23.164;2023-03-14T06:26:50;134.63;;;30.20;;
73697;SDS011;62004;42.566;23.164;2023-03-14T06:29:15;136.93;;;29.47;;
73697;SDS011;62004;42.566;23.164;2023-03-14T06:31:40;138.40;;;29.07;;
73697;SDS011;62004;42.566;23.164;2023-03-14T06:34:06;139.63;;;31.60;;
73697;SDS011;62004;42.566;23.164;2023-03-14T06:36:31;142.20;;;32.87;;
73697;SDS011;62004;42.566;23.164;2023-03-14T06:38:56;143.90;;;33.00;;
73697;SDS011;62004;42.566;23.164;2023-03-14T06:41:21;147.53;;;33.17;;
73697;SDS011;62004;42.566;23.164;2023-03-14T06:43:48;150.27;;;32.72;;
73697;SDS011;62004;42.566;23.164;2023-03-14T06:46:14;151.20;;;32.42;;
73697;SDS011;62004;42.566;23.164;2023-03-14T06:48:40;151.32;;;33.25;;
73697;SDS011;62004;42.566;23.164;2023-03-14T06:51:05;150.35;;;33.15;;
73697;SDS011;62004;42.566;23.164;2023-03-14T06:53:31;152.00;;;32.30;;
73697;SDS011;62004;42.566;23.164;2023-03-14T06:55:56;153.10;;;32.03;;
73697;SDS011;62004;42.566;23.164;2023-03-14T06:58:21;153.83;;;33.20;;
73697;SDS011;62004;42.566;23.164;2023-03-14T07:00:47;154.40;;;32.93;;
73697;SDS011;62004;42.566;23.164;2023-03-14T07:03:13;157.90;;;30.93;;
73697;SDS011;62004;42.566;23.164;2023-03-14T07:05:38;154.23;;;31.67;;
73697;SDS011;62004;42.566;23.164;2023-03-14T07:08:05;153.07;;;32.15;;
73697;SDS011;62004;42.566;23.164;2023-03-14T07:10:30;153.97;;;34.03;;
73697;SDS011;62004;42.566;23.164;2023-03-14T07:12:55;152.87;;;32.73;;
73697;SDS011;62004;42.566;23.164;2023-03-14T07:15:21;151.53;;;33.17;;
73697;SDS011;62004;42.566;23.164;2023-03-14T07:17:46;152.07;;;31.83;;
73697;SDS011;62004;42.566;23.164;2023-03-14T07:20:13;153.70;;;36.53;;
73697;SDS011;62004;42.566;23.164;2023-03-14T07:22:38;154.53;;;33.40;;
73697;SDS011;62004;42.566;23.164;2023-03-14T07:25:03;154.33;;;33.67;;
73697;SDS011;62004;42.566;23.164;2023-03-14T07:27:28;157.27;;;35.05;;
73697;SDS011;62004;42.566;23.164;2023-03-14T07:29:54;156.70;;;33.17;;
73697;SDS011;62004;42.566;23.164;2023-03-14T07:32:19;156.57;;;33.23;;
73697;SDS011;62004;42.566;23.164;2023-03-14T07:34:44;200.93;;;32.33;;
73697;SDS011;62004;42.566;23.164;2023-03-14T07:37:09;190.43;;;33.27;;
73697;SDS011;62004;42.566;23.164;2023-03-14T07:39:35;184.67;;;31.37;;
73697;SDS011;62004;42.566;23.164;2023-03-14T07:42:00;175.30;;;32.30;;
73697;SDS011;62004;42.566;23.164;2023-03-14T07:44:25;165.93;;;33.35;;
73697;SDS011;62004;42.566;23.164;2023-03-14T07:46:51;161.95;;;32.60;;
73697;SDS011;62004;42.566;23.164;2023-03-14T07:49:16;161.70;;;32.60;;
73697;SDS011;62004;42.566;23.164;2023-03-14T07:51:41;161.57;;;33.07;;
73697;SDS011;62004;42.566;23.164;2023-03-14T07:54:09;161.38;;;33.65;;
73697;SDS011;62004;42.566;23.164;2023-03-14T07:56:34;163.87;;;36.53;;
73697;SDS011;62004;42.566;23.164;2023-03-14T07:58:59;165.30;;;33.13;;
73697;SDS011;62004;42.566;23.164;2023-03-14T08:01:24;169.10;;;33.07;;
73697;SDS011;62004;42.566;23.164;2023-03-14T08:03:49;165.83;;;32.10;;
73697;SDS011;62004;42.566;23.164;2023-03-14T08:06:15;177.27;;;33.57;;
73697;SDS011;62004;42.566;23.164;2023-03-14T08:08:40;171.30;;;33.53;;
73697;SDS011;62004;42.566;23.164;2023-03-14T08:11:06;159.40;;;32.77;;
73697;SDS011;62004;42.566;23.164;2023-03-14T08:13:33;156.95;;;31.90;;
73697;SDS011;62004;42.566;23.164;2023-03-14T08:15:59;157.95;;;31.25;;
73697;SDS011;62004;42.566;23.164;2023-03-14T08:18:24;156.03;;;31.30;;
73697;SDS011;62004;42.566;23.164;2023-03-14T08:20:49;154.38;;;31.13;;
73697;SDS011;62004;42.566;23.164;2023-03-14T08:23:14;151.77;;;31.60;;
73697;SDS011;62004;42.566;23.164;2023-03-14T08:25:40;151.83;;;31.17;;
73697;SDS011;62004;42.566;23.164;2023-03-14T08:28:05;148.70;;;31.33;;
73697;SDS011;62004;42.566;23.164;2023-03-14T08:30:30;150.73;;;30.70;;
73697;SDS011;62004;42.566;23.164;2023-03-14T08:32:56;148.52;;;30.35;;
73697;SDS011;62004;42.566;23.164;2023-03-14T08:35:22;146.88;;;30.55;;
73697;SDS011;62004;42.566;23.164;2023-03-14T08:37:48;147.77;;;29.25;;
73697;SDS011;62004;42.566;23.164;2023-03-14T08:40:14;145.75;;;28.08;;
73697;SDS011;62004;42.566;23.164;2023-03-14T08:42:40;144.95;;;28.92;;
73697;SDS011;62004;42.566;23.164;2023-03-14T08:45:06;144.97;;;28.10;;
73697;SDS011;62004;42.566;23.164;2023-03-14T08:47:31;144.10;;;28.23;;
73697;SDS011;62004;42.566;23.164;2023-03-14T08:49:57;142.77;;;28.80;;
73697;SDS011;62004;42.566;23.164;2023-03-14T08:52:22;141.00;;;27.57;;
73697;SDS011;62004;42.566;23.164;2023-03-14T08:54:47;141.57;;;29.48;;
73697;SDS011;62004;42.566;23.164;2023-03-14T08:57:13;141.55;;;28.65;;
73697;SDS011;62004;42.566;23.164;2023-03-14T08:59:38;140.63;;;28.77;;
73697;SDS011;62004;42.566;23.164;2023-03-14T09:02:03;139.93;;;28.30;;
73697;SDS011;62004;42.566;23.164;2023-03-14T09:04:29;140.40;;;28.98;;
73697;SDS011;62004;42.566;23.164;2023-03-14T09:06:55;140.25;;;28.05;;
73697;SDS011;62004;42.566;23.164;2023-03-14T09:09:20;139.83;;;27.90;;
73697;SDS011;62004;42.566;23.164;2023-03-14T09:11:45;138.90;;;28.90;;
73697;SDS011;62004;42.566;23.164;2023-03-14T09:14:10;137.95;;;28.20;;
73697;SDS011;62004;42.566;23.164;2023-03-14T09:16:36;138.73;;;28.20;;
73697;SDS011;62004;42.566;23.164;2023-03-14T09:19:01;125.27;;;27.50;;
73697;SDS011;62004;42.566;23.164;2023-03-14T09:21:27;126.75;;;27.05;;
73697;SDS011;62004;42.566;23.164;2023-03-14T09:23:52;126.20;;;27.98;;
73697;SDS011;62004;42.566;23.164;2023-03-14T09:26:17;130.35;;;29.23;;
73697;SDS011;62004;42.566;23.164;2023-03-14T09:28:43;129.00;;;27.88;;
73697;SDS011;62004;42.566;23.164;2023-03-14T09:31:09;131.30;;;28.23;;
73697;SDS011;62004;42.566;23.164;2023-03-14T09:33:35;131.43;;;28.08;;
73697;SDS011;62004;42.566;23.164;2023-03-14T09:36:00;132.20;;;28.70;;
73697;SDS011;62004;42.566;23.164;2023-03-14T09:38:26;132.05;;;28.65;;
73697;SDS011;62004;42.566;23.164;2023-03-14T09:40:52;133.25;;;30.27;;
73697;SDS011;62004;42.566;23.164;2023-03-14T09:43:18;136.55;;;28.08;;
73697;SDS011;62004;42.566;23.164;2023-03-14T09:45:44;135.63;;;28.88;;
73697;SDS011;62004;42.566;23.164;2023-03-14T09:48:13;136.23;;;28.73;;
73697;SDS011;62004;42.566;23.164;2023-03-14T09:53:11;133.38;;;29.10;;
73697;SDS011;62004;42.566;23.164;2023-03-14T09:55:37;128.50;;;27.70;;
73697;SDS011;62004;42.566;23.164;2023-03-14T09:58:04;128.00;;;27.92;;
73697;SDS011;62004;42.566;23.164;2023-03-14T10:00:33;127.97;;;27.75;;
73697;SDS011;62004;42.566;23.164;2023-03-14T10:03:09;128.05;;;27.48;;
73697;SDS011;62004;42.566;23.164;2023-03-14T10:05:42;127.22;;;28.13;;
73697;SDS011;62004;42.566;23.164;2023-03-14T10:08:11;126.80;;;28.45;;
73697;SDS011;62004;42.566;23.164;2023-03-14T10:10:36;128.07;;;28.05;;
73697;SDS011;62004;42.566;23.164;2023-03-14T10:13:23;128.85;;;28.25;;
73697;SDS011;62004;42.566;23.164;2023-03-14T10:15:52;128.98;;;27.95;;
73697;SDS011;62004;42.566;23.164;2023-03-14T10:20:47;130.48;;;29.70;;
73697;SDS011;62004;42.566;23.164;2023-03-14T10:25:42;128.50;;;27.67;;
73697;SDS011;62004;42.566;23.164;2023-03-14T10:28:11;127.80;;;27.58;;
73697;SDS011;62004;42.566;23.164;2023-03-14T10:30:47;128.73;;;28.10;;
73697;SDS011;62004;42.566;23.164;2023-03-14T10:33:22;129.37;;;28.23;;
73697;SDS011;62004;42.566;23.164;2023-03-14T10:35:52;126.47;;;27.63;;
73697;SDS011;62004;42.566;23.164;2023-03-14T10:38:18;127.63;;;27.90;;
73697;SDS011;62004;42.566;23.164;2023-03-14T10:40:47;128.15;;;27.88;;
73697;SDS011;62004;42.566;23.164;2023-03-14T10:43:15;127.55;;;27.95;;
73697;SDS011;62004;42.566;23.164;2023-03-14T10:45:41;127.18;;;27.40;;
73697;SDS011;62004;42.566;23.164;2023-03-14T10:50:40;128.25;;;27.77;;
73697;SDS011;62004;42.566;23.164;2023-03-14T10:53:12;128.60;;;27.88;;
73697;SDS011;62004;42.566;23.164;2023-03-14T10:55:42;128.15;;;27.92;;
73697;SDS011;62004;42.566;23.164;2023-03-14T11:01:05;126.78;;;28.23;;
73697;SDS011;62004;42.566;23.164;2023-03-14T11:03:33;128.05;;;27.60;;
73697;SDS011;62004;42.566;23.164;2023-03-14T11:06:23;129.73;;;27.70;;
73697;SDS011;62004;42.566;23.164;2023-03-14T11:11:18;128.90;;;28.40;;
73697;SDS011;62004;42.566;23.164;2023-03-14T11:31:46;133.07;;;29.13;;
73697;SDS011;62004;42.566;23.164;2023-03-14T11:34:16;133.75;;;29.02;;
73697;SDS011;62004;42.566;23.164;2023-03-14T11:36:52;133.73;;;28.40;;
73697;SDS011;62004;42.566;23.164;2023-03-14T11:41:44;131.57;;;27.93;;
73697;SDS011;62004;42.566;23.164;2023-03-14T11:44:17;132.23;;;28.42;;
73697;SDS011;62004;42.566;23.164;2023-03-14T11:47:06;134.38;;;28.42;;
73697;SDS011;62004;42.566;23.164;2023-03-14T11:51:58;134.47;;;28.77;;
73697;SDS011;62004;42.566;23.164;2023-03-14T11:57:03;134.38;;;29.40;;
73697;SDS011;62004;42.566;23.164;2023-03-14T11:59:31;133.43;;;28.58;;
73697;SDS011;62004;42.566;23.164;2023-03-14T12:06:51;133.70;;;28.48;;
73697;SDS011;62004;42.566;23.164;2023-03-14T12:09:16;133.65;;;28.42;;
73697;SDS011;62004;42.566;23.164;2023-03-14T12:14:22;133.85;;;28.30;;
73697;SDS011;62004;42.566;23.164;2023-03-14T12:16:48;134.52;;;28.40;;
73697;SDS011;62004;42.566;23.164;2023-03-14T12:22:07;134.70;;;28.63;;
73697;SDS011;62004;42.566;23.164;2023-03-14T12:24:35;134.57;;;28.25;;
73697;SDS011;62004;42.566;23.164;2023-03-14T12:27:02;134.57;;;28.60;;
73697;SDS011;62004;42.566;23.164;2023-03-14T12:29:27;135.07;;;28.35;;
73697;SDS011;62004;42.566;23.164;2023-03-14T12:34:40;134.27;;;29.00;;
73697;SDS011;62004;42.566;23.164;2023-03-14T12:39:33;135.30;;;28.17;;
73697;SDS011;62004;42.566;23.164;2023-03-14T12:46:54;136.07;;;28.42;;
73697;SDS011;62004;42.566;23.164;2023-03-14T12:49:20;136.13;;;28.17;;
73697;SDS011;62004;42.566;23.164;2023-03-14T12:51:46;135.93;;;28.13;;
73697;SDS011;62004;42.566;23.164;2023-03-14T12:56:42;136.00;;;28.47;;
73697;SDS011;62004;42.566;23.164;2023-03-14T13:01:55;133.27;;;28.33;;
73697;SDS011;62004;42.566;23.164;2023-03-14T13:04:59;133.45;;;28.65;;
73697;SDS011;62004;42.566;23.164;2023-03-14T13:10:16;132.48;;;28.38;;
73697;SDS011;62004;42.566;23.164;2023-03-14T13:15:41;134.07;;;29.63;;
73697;SDS011;62004;42.566;23.164;2023-03-14T13:18:11;134.95;;;31.05;;
73697;SDS011;62004;42.566;23.164;2023-03-14T13:20:38;133.20;;;29.83;;
73697;SDS011;62004;42.566;23.164;2023-03-14T13:23:18;133.75;;;29.20;;
73697;SDS011;62004;42.566;23.164;2023-03-14T13:25:44;133.27;;;29.25;;
73697;SDS011;62004;42.566;23.164;2023-03-14T13:28:09;132.77;;;29.10;;
73697;SDS011;62004;42.566;23.164;2023-03-14T13:30:38;131.73;;;28.88;;
73697;SDS011;62004;42.566;23.164;2023-03-14T13:33:04;131.88;;;28.60;;
73697;SDS011;62004;42.566;23.164;2023-03-14T13:35:37;131.77;;;28.30;;
73697;SDS011;62004;42.566;23.164;2023-03-14T13:38:03;132.20;;;28.58;;
73697;SDS011;62004;42.566;23.164;2023-03-14T13:40:31;131.77;;;27.83;;
73697;SDS011;62004;42.566;23.164;2023-03-14T13:43:17;132.63;;;28.05;;
73697;SDS011;62004;42.566;23.164;2023-03-14T13:45:48;134.82;;;29.50;;
73697;SDS011;62004;42.566;23.164;2023-03-14T13:48:14;132.73;;;28.13;;
73697;SDS011;62004;42.566;23.164;2023-03-14T13:50:44;132.50;;;28.27;;
73697;SDS011;62004;42.566;23.164;2023-03-14T13:53:11;132.90;;;29.17;;
73697;SDS011;62004;42.566;23.164;2023-03-14T13:55:36;131.90;;;29.50;;
73697;SDS011;62004;42.566;23.164;2023-03-14T13:58:01;127.20;;;26.87;;
73697;SDS011;62004;42.566;23.164;2023-03-14T14:00:26;127.07;;;27.23;;
73697;SDS011;62004;42.566;23.164;2023-03-14T14:02:58;127.32;;;27.65;;
73697;SDS011;62004;42.566;23.164;2023-03-14T14:05:27;127.68;;;28.02;;
73697;SDS011;62004;42.566;23.164;2023-03-14T14:07:53;127.55;;;27.35;;
73697;SDS011;62004;42.566;23.164;2023-03-14T14:10:19;127.90;;;28.40;;
73697;SDS011;62004;42.566;23.164;2023-03-14T14:15:21;128.95;;;28.23;;
73697;SDS011;62004;42.566;23.164;2023-03-14T14:17:49;128.63;;;27.73;;
73697;SDS011;62004;42.566;23.164;2023-03-14T14:22:47;128.23;;;28.10;;
73697;SDS011;62004;42.566;23.164;2023-03-14T14:25:13;128.60;;;27.95;;
73697;SDS011;62004;42.566;23.164;2023-03-14T14:27:41;129.02;;;27.95;;
73697;SDS011;62004;42.566;23.164;2023-03-14T14:30:24;128.18;;;27.80;;
73697;SDS011;62004;42.566;23.164;2023-03-14T14:32:50;128.43;;;28.35;;
73697;SDS011;62004;42.566;23.164;2023-03-14T14:36:16;128.50;;;27.88;;
73697;SDS011;62004;42.566;23.164;2023-03-14T14:38:11;128.27;;;28.08;;
73697;SDS011;62004;42.566;23.164;2023-03-14T14:40:44;128.70;;;27.75;;
73697;SDS011;62004;42.566;23.164;2023-03-14T14:43:10;129.18;;;29.17;;
73697;SDS011;62004;42.566;23.164;2023-03-14T14:45:37;128.40;;;27.95;;
73697;SDS011;62004;42.566;23.164;2023-03-14T14:48:06;126.50;;;27.73;;
73697;SDS011;62004;42.566;23.164;2023-03-14T14:53:17;129.10;;;28.73;;
73697;SDS011;62004;42.566;23.164;2023-03-14T14:55:44;128.68;;;27.90;;
73697;SDS011;62004;42.566;23.164;2023-03-14T14:58:55;129.57;;;29.23;;
73697;SDS011;62004;42.566;23.164;2023-03-14T15:00:56;128.20;;;27.05;;
73697;SDS011;62004;42.566;23.164;2023-03-14T15:03:22;126.30;;;27.80;;
73697;SDS011;62004;42.566;23.164;2023-03-14T15:05:48;125.20;;;27.27;;
73697;SDS011;62004;42.566;23.164;2023-03-14T15:08:13;129.50;;;28.43;;
73697;SDS011;62004;42.566;23.164;2023-03-14T15:10:38;128.90;;;28.80;;
73697;SDS011;62004;42.566;23.164;2023-03-14T15:13:04;128.63;;;27.67;;
73697;SDS011;62004;42.566;23.164;2023-03-14T15:15:29;127.77;;;27.93;;
73697;SDS011;62004;42.566;23.164;2023-03-14T15:17:55;127.53;;;27.95;;
73697;SDS011;62004;42.566;23.164;2023-03-14T15:20:20;127.53;;;27.50;;
73697;SDS011;62004;42.566;23.164;2023-03-14T15:22:48;128.88;;;27.98;;
73697;SDS011;62004;42.566;23.164;2023-03-14T15:25:13;127.63;;;28.17;;
73697;SDS011;62004;42.566;23.164;2023-03-14T15:27:39;127.60;;;28.63;;
73697;SDS011;62004;42.566;23.164;2023-03-14T15:30:14;128.68;;;28.42;;
73697;SDS011;62004;42.566;23.164;2023-03-14T15:32:40;126.80;;;27.95;;
73697;SDS011;62004;42.566;23.164;2023-03-14T15:35:05;127.37;;;27.47;;